createdAt,value
2022-11-14T00:01:00.418Z,3.65
2022-11-14T00:03:26.950Z,3.64
2022-11-14T00:05:53.484Z,3.61
2022-11-14T00:08:22.705Z,3.56
2022-11-14T00:10:51.323Z,3.53
2022-11-14T00:13:19.501Z,3.50
2022-11-14T00:15:50.028Z,3.45
2022-11-14T00:18:17.653Z,3.40
2022-11-14T00:20:44.185Z,3.39
2022-11-14T00:23:10.730Z,3.36
2022-11-14T00:25:37.361Z,3.34
2022-11-14T00:28:03.899Z,3.35
2022-11-14T00:30:30.440Z,3.33
2022-11-14T00:32:57.019Z,3.30
2022-11-14T00:35:23.521Z,3.29
2022-11-14T00:37:50.264Z,3.31
2022-11-14T00:40:17.415Z,3.31
2022-11-14T00:42:44.183Z,3.30
2022-11-14T00:45:11.475Z,3.27
2022-11-14T00:47:37.953Z,3.24
2022-11-14T00:50:05.225Z,3.26
2022-11-14T00:52:31.845Z,3.25
2022-11-14T00:54:58.386Z,3.23
2022-11-14T00:57:24.923Z,3.22
2022-11-14T00:59:51.565Z,3.19
2022-11-14T01:02:18.005Z,3.14
2022-11-14T01:04:44.437Z,3.13
2022-11-14T01:07:11.155Z,3.12
2022-11-14T01:09:37.725Z,3.09
2022-11-14T01:12:04.778Z,3.03
2022-11-14T01:14:31.311Z,2.98
2022-11-14T01:16:57.742Z,2.97
2022-11-14T01:19:24.290Z,2.97
2022-11-14T01:21:50.928Z,2.92
2022-11-14T01:24:17.368Z,2.89
2022-11-14T01:26:43.906Z,2.88
2022-11-14T01:29:10.391Z,2.83
2022-11-14T01:31:36.904Z,2.81
2022-11-14T01:34:03.518Z,2.76
2022-11-14T01:36:31.698Z,2.74
2022-11-14T01:38:58.233Z,2.72
2022-11-14T01:41:24.813Z,2.70
2022-11-14T01:43:51.314Z,2.67
2022-11-14T01:46:20.494Z,2.67
2022-11-14T01:49:09.251Z,2.68
2022-11-14T01:51:43.409Z,2.69
2022-11-14T01:54:17.208Z,2.68
2022-11-14T01:56:50.332Z,2.61
2022-11-14T01:59:22.627Z,2.58
2022-11-14T02:01:52.168Z,2.59
2022-11-14T02:04:33.168Z,2.61
2022-11-14T02:07:03.872Z,2.61
2022-11-14T02:09:35.610Z,2.58
2022-11-14T02:12:06.188Z,2.54
2022-11-14T02:14:34.470Z,2.52
2022-11-14T02:17:27.855Z,2.49
2022-11-14T02:19:51.921Z,2.42
2022-11-14T02:22:18.662Z,2.39
2022-11-14T02:24:46.190Z,2.37
2022-11-14T02:27:14.712Z,2.36
2022-11-14T02:29:42.272Z,2.36
2022-11-14T02:32:10.896Z,2.36
2022-11-14T02:34:38.634Z,2.34
2022-11-14T02:37:05.845Z,2.31
2022-11-14T02:39:32.316Z,2.26
2022-11-14T02:41:58.986Z,2.21
2022-11-14T02:44:26.096Z,2.19
2022-11-14T02:46:52.749Z,2.18
2022-11-14T02:49:19.288Z,2.16
2022-11-14T02:51:45.828Z,2.14
2022-11-14T02:54:12.379Z,2.11
2022-11-14T02:56:39.000Z,2.10
2022-11-14T02:59:05.463Z,2.13
2022-11-14T03:01:32.061Z,2.16
2022-11-14T03:03:58.714Z,2.16
2022-11-14T03:06:25.250Z,2.17
2022-11-14T03:08:51.792Z,2.18
2022-11-14T03:11:18.323Z,2.18
2022-11-14T03:13:45.070Z,2.17
2022-11-14T03:16:13.560Z,2.17
2022-11-14T03:18:40.599Z,2.18
2022-11-14T03:21:09.093Z,2.20
2022-11-14T03:23:36.454Z,2.22
2022-11-14T03:26:05.162Z,2.25
2022-11-14T03:28:32.334Z,2.27
2022-11-14T03:30:59.138Z,2.31
2022-11-14T03:33:25.774Z,2.34
2022-11-14T03:35:53.106Z,2.36
2022-11-14T03:38:20.714Z,2.38
2022-11-14T03:40:47.141Z,2.41
2022-11-14T03:43:13.650Z,2.42
2022-11-14T03:45:40.113Z,2.45
2022-11-14T03:48:06.865Z,2.47
2022-11-14T03:50:33.650Z,2.49
2022-11-14T03:53:00.140Z,2.47
2022-11-14T03:55:27.311Z,2.45
2022-11-14T03:57:53.896Z,2.45
2022-11-14T04:00:20.676Z,2.47
2022-11-14T04:02:47.151Z,2.48
2022-11-14T04:05:14.365Z,2.47
2022-11-14T04:07:40.903Z,2.46
2022-11-14T04:10:08.050Z,2.43
2022-11-14T04:12:34.586Z,2.39
2022-11-14T04:15:01.124Z,2.34
2022-11-14T04:17:27.660Z,2.31
2022-11-14T04:19:54.198Z,2.26
2022-11-14T04:22:20.892Z,2.24
2022-11-14T04:24:47.585Z,2.21
2022-11-14T04:27:14.037Z,2.18
2022-11-14T04:29:40.474Z,2.16
2022-11-14T04:32:07.182Z,2.12
2022-11-14T04:34:33.736Z,2.07
2022-11-14T04:37:00.192Z,2.06
2022-11-14T04:39:26.709Z,2.05
2022-11-14T04:41:53.247Z,2.06
2022-11-14T04:44:19.786Z,2.05
2022-11-14T04:46:46.325Z,2.05
2022-11-14T04:49:13.164Z,2.03
2022-11-14T04:51:39.702Z,2.01
2022-11-14T04:54:06.328Z,2.00
2022-11-14T04:56:32.787Z,1.98
2022-11-14T04:58:59.440Z,1.95
2022-11-14T05:01:26.026Z,1.94
2022-11-14T05:03:52.623Z,1.93
2022-11-14T05:06:19.073Z,1.93
2022-11-14T05:08:45.504Z,1.92
2022-11-14T05:11:16.061Z,1.92
2022-11-14T05:13:43.073Z,1.92
2022-11-14T05:16:10.212Z,1.93
2022-11-14T05:18:37.119Z,1.92
2022-11-14T05:21:04.205Z,1.90
2022-11-14T05:23:30.679Z,1.86
2022-11-14T05:26:00.356Z,1.83
2022-11-14T05:28:27.200Z,1.82
2022-11-14T05:31:00.235Z,1.80
2022-11-14T05:33:26.720Z,1.79
2022-11-14T05:35:53.135Z,1.80
2022-11-14T05:38:19.697Z,1.77
2022-11-14T05:40:46.228Z,1.73
2022-11-14T05:43:12.767Z,1.70
2022-11-14T05:45:39.293Z,1.66
2022-11-14T05:48:06.252Z,1.63
2022-11-14T05:50:32.791Z,1.66
2022-11-14T05:52:59.270Z,1.66
2022-11-14T05:55:25.767Z,1.61
2022-11-14T05:57:52.508Z,1.57
2022-11-14T06:00:19.147Z,1.54
2022-11-14T06:02:45.660Z,1.53
2022-11-14T06:05:12.226Z,1.56
2022-11-14T06:07:38.779Z,1.58
2022-11-14T06:10:05.917Z,1.59
2022-11-14T06:12:32.670Z,1.61
2022-11-14T06:14:59.199Z,1.66
2022-11-14T06:17:25.736Z,1.69
2022-11-14T06:19:52.277Z,1.65
2022-11-14T06:22:18.916Z,1.65
2022-11-14T06:24:45.458Z,1.66
2022-11-14T06:27:11.969Z,1.67
2022-11-14T06:29:38.408Z,1.70
2022-11-14T06:32:05.284Z,1.74
2022-11-14T06:34:31.691Z,1.78
2022-11-14T06:36:58.357Z,1.81
2022-11-14T06:39:24.891Z,1.81
2022-11-14T06:41:51.432Z,1.85
2022-11-14T06:44:17.972Z,1.89
2022-11-14T06:46:44.458Z,1.88
2022-11-14T06:49:10.948Z,1.88
2022-11-14T06:51:37.567Z,1.90
2022-11-14T06:54:04.223Z,1.94
2022-11-14T06:56:30.761Z,1.95
2022-11-14T06:58:57.178Z,1.89
2022-11-14T07:01:25.474Z,1.83
2022-11-14T07:03:52.616Z,1.78
2022-11-14T07:06:22.898Z,1.77
2022-11-14T07:08:50.013Z,1.80
2022-11-14T07:11:19.650Z,1.85
2022-11-14T07:13:46.149Z,1.88
2022-11-14T07:16:12.689Z,1.91
2022-11-14T07:18:39.331Z,1.97
2022-11-14T07:21:06.526Z,1.99
2022-11-14T07:23:34.765Z,2.01
2022-11-14T07:26:02.327Z,2.07
2022-11-14T07:28:30.078Z,2.13
2022-11-14T07:30:56.936Z,2.17
2022-11-14T07:33:23.474Z,2.18
2022-11-14T07:35:51.096Z,2.25
2022-11-14T07:38:17.547Z,2.30
2022-11-14T07:40:59.645Z,2.30
2022-11-14T07:43:27.343Z,2.25
2022-11-14T07:45:54.047Z,2.25
2022-11-14T07:48:20.519Z,2.34
2022-11-14T07:50:47.163Z,2.41
2022-11-14T07:53:13.696Z,2.53
2022-11-14T07:55:40.441Z,2.56
2022-11-14T07:58:06.974Z,2.61
2022-11-14T08:00:33.452Z,2.64
2022-11-14T08:03:45.887Z,2.69
2022-11-14T08:06:57.035Z,2.69
2022-11-14T08:10:07.907Z,2.69
2022-11-14T08:12:34.427Z,2.71
2022-11-14T08:15:00.849Z,2.76
2022-11-14T08:17:27.444Z,2.84
2022-11-14T08:19:53.858Z,2.94
2022-11-14T08:22:20.473Z,3.07
2022-11-14T08:24:47.011Z,3.13
2022-11-14T08:27:13.551Z,3.18
2022-11-14T08:29:40.192Z,3.18
2022-11-14T08:32:06.931Z,3.18
2022-11-14T08:34:33.592Z,3.24
2022-11-14T08:37:01.377Z,3.31
2022-11-14T08:39:28.296Z,3.37
2022-11-14T08:41:56.432Z,3.46
2022-11-14T08:44:23.012Z,3.47
2022-11-14T08:46:50.137Z,3.51
2022-11-14T08:49:16.710Z,3.58
2022-11-14T08:51:43.361Z,3.67
2022-11-14T08:54:10.205Z,3.74
2022-11-14T08:56:36.733Z,3.80
2022-11-14T08:59:04.644Z,3.85
2022-11-14T09:01:31.101Z,3.90
2022-11-14T09:04:00.041Z,4.00
2022-11-14T09:06:26.882Z,4.07
2022-11-14T09:08:53.417Z,4.12
2022-11-14T09:11:20.106Z,4.12
2022-11-14T09:13:46.809Z,4.13
2022-11-14T09:16:13.567Z,4.20
2022-11-14T09:18:40.179Z,4.29
2022-11-14T09:21:09.081Z,4.36
2022-11-14T09:23:36.438Z,4.45
2022-11-14T09:26:07.523Z,4.53
2022-11-14T09:28:35.152Z,4.56
2022-11-14T09:31:07.077Z,4.60
2022-11-14T09:33:35.081Z,4.73
2022-11-14T09:36:04.712Z,4.80
2022-11-14T09:38:36.991Z,4.88
2022-11-14T09:41:26.160Z,4.87
2022-11-14T09:44:20.700Z,4.94
2022-11-14T09:47:01.612Z,4.97
2022-11-14T09:49:47.639Z,4.79
2022-11-14T09:52:32.885Z,4.66
2022-11-14T09:55:11.612Z,4.61
2022-11-14T09:57:40.789Z,4.62
2022-11-14T10:00:22.680Z,4.64
2022-11-14T10:02:59.848Z,4.72
2022-11-14T10:05:32.580Z,4.81
2022-11-14T10:08:31.178Z,4.87
2022-11-14T10:11:22.508Z,4.85
2022-11-14T10:14:23.238Z,4.86
2022-11-14T10:17:14.967Z,4.78
2022-11-14T10:20:11.831Z,4.78
2022-11-14T10:22:50.026Z,4.83
2022-11-14T10:25:16.577Z,4.93
2022-11-14T10:28:34.928Z,5.01
2022-11-14T10:31:19.345Z,5.11
2022-11-14T10:34:03.447Z,5.35
2022-11-14T10:36:54.361Z,5.53
2022-11-14T10:39:31.486Z,5.76
2022-11-14T10:42:07.743Z,5.91
2022-11-14T10:44:42.342Z,5.95
2022-11-14T10:47:16.059Z,6.08
2022-11-14T10:49:46.280Z,6.29
2022-11-14T10:52:16.638Z,6.52
2022-11-14T10:54:55.238Z,6.76
2022-11-14T10:57:22.883Z,6.95
2022-11-14T10:59:49.332Z,7.08
2022-11-14T11:02:16.369Z,7.25
2022-11-14T11:04:44.838Z,7.44
2022-11-14T11:07:11.468Z,7.64
2022-11-14T11:09:45.211Z,7.83
2022-11-14T11:12:18.922Z,7.91
2022-11-14T11:14:48.555Z,7.88
2022-11-14T11:17:17.605Z,7.92
2022-11-14T11:19:44.318Z,7.91
2022-11-14T11:22:36.406Z,7.90
2022-11-14T11:25:22.089Z,8.02
2022-11-14T11:28:04.031Z,8.14
2022-11-14T11:30:30.646Z,8.19
2022-11-14T11:32:57.182Z,8.16
2022-11-14T11:35:23.728Z,7.94
2022-11-14T11:37:56.142Z,7.89
2022-11-14T11:40:26.527Z,7.85
2022-11-14T11:45:48.587Z,7.68
2022-11-14T11:48:19.145Z,7.64
2022-11-14T11:50:45.861Z,7.59
2022-11-14T11:53:24.585Z,7.56
2022-11-14T11:56:01.181Z,7.41
2022-11-14T11:58:44.801Z,7.29
2022-11-14T12:01:15.046Z,7.21
2022-11-14T12:03:46.680Z,7.17
2022-11-14T12:06:20.512Z,7.21
2022-11-14T12:09:02.324Z,7.28
2022-11-14T12:11:33.134Z,7.35
2022-11-14T12:14:16.773Z,7.38
2022-11-14T12:17:05.861Z,7.49
2022-11-14T12:19:48.154Z,7.61
2022-11-14T12:22:23.504Z,7.70
2022-11-14T12:25:24.141Z,7.79
2022-11-14T12:28:13.224Z,7.81
2022-11-14T12:30:42.504Z,7.88
2022-11-14T12:33:33.384Z,7.97
2022-11-14T12:36:02.863Z,8.05
2022-11-14T12:38:40.946Z,8.13
2022-11-14T12:41:08.548Z,8.19
2022-11-14T12:43:39.423Z,8.25
2022-11-14T12:46:08.108Z,8.29
2022-11-14T12:48:38.976Z,8.24
2022-11-14T12:51:25.626Z,8.11
2022-11-14T12:53:54.516Z,7.91
2022-11-14T12:56:30.031Z,7.80
2022-11-14T12:59:27.086Z,7.75
2022-11-14T13:02:08.576Z,7.62
2022-11-14T13:04:54.015Z,7.58
2022-11-14T13:07:34.106Z,7.54
2022-11-14T13:10:04.343Z,7.50
2022-11-14T13:12:35.322Z,7.52
2022-11-14T13:15:32.126Z,7.55
2022-11-14T13:18:15.363Z,7.52
2022-11-14T13:20:42.107Z,7.48
2022-11-14T13:23:40.797Z,7.46
2022-11-14T13:26:10.058Z,7.43
2022-11-14T13:28:45.246Z,7.35
2022-11-14T13:31:33.387Z,7.31
2022-11-14T13:34:01.277Z,7.29
2022-11-14T13:36:40.296Z,7.29
2022-11-14T13:39:09.690Z,7.27
2022-11-14T13:41:57.952Z,7.25
2022-11-14T13:44:51.719Z,7.23
2022-11-14T13:47:47.723Z,7.21
2022-11-14T13:50:17.599Z,7.20
2022-11-14T13:52:47.112Z,7.14
2022-11-14T13:55:22.118Z,7.13
2022-11-14T13:58:28.582Z,7.11
2022-11-14T14:01:23.158Z,7.02
2022-11-14T14:04:16.981Z,6.92
2022-11-14T14:07:07.950Z,6.81
2022-11-14T14:09:50.106Z,6.73
2022-11-14T14:12:33.514Z,6.64
2022-11-14T14:15:18.256Z,6.55
2022-11-14T14:18:22.228Z,6.47
2022-11-14T14:21:00.854Z,6.38
2022-11-14T14:23:27.290Z,6.31
2022-11-14T14:26:20.791Z,6.25
2022-11-14T14:28:56.527Z,6.17
2022-11-14T14:31:23.881Z,6.08
2022-11-14T14:33:52.262Z,5.99
2022-11-14T14:36:27.487Z,5.88
2022-11-14T14:39:17.586Z,5.77
2022-11-14T14:41:44.340Z,5.63
2022-11-14T14:44:27.264Z,5.50
2022-11-14T14:46:54.725Z,5.34
2022-11-14T14:49:39.130Z,5.21
2022-11-14T14:52:37.988Z,5.06
2022-11-14T14:55:07.704Z,4.91
2022-11-14T14:57:34.642Z,4.80
2022-11-14T15:00:04.971Z,4.69
2022-11-14T15:02:32.123Z,4.60
2022-11-14T15:05:00.094Z,4.50
2022-11-14T15:07:29.989Z,4.41
2022-11-14T15:09:58.102Z,4.32
2022-11-14T15:12:27.614Z,4.22
2022-11-14T15:14:55.127Z,4.15
2022-11-14T15:17:25.411Z,4.07
2022-11-14T15:19:53.907Z,3.99
2022-11-14T15:22:24.718Z,3.92
2022-11-14T15:25:23.782Z,3.86
2022-11-14T15:27:53.330Z,3.77
2022-11-14T15:30:26.737Z,3.73
2022-11-14T15:32:59.379Z,3.68
2022-11-14T15:35:28.341Z,3.63
2022-11-14T15:38:21.747Z,3.58
2022-11-14T15:41:19.242Z,3.51
2022-11-14T15:43:45.684Z,3.44
2022-11-14T15:46:40.312Z,3.38
2022-11-14T15:49:22.769Z,3.32
2022-11-14T15:52:00.738Z,3.28
2022-11-14T15:54:34.443Z,3.25
2022-11-14T15:57:09.544Z,3.24
2022-11-14T15:59:36.083Z,3.21
2022-11-14T16:02:12.696Z,3.17
2022-11-14T16:04:44.416Z,3.13
2022-11-14T16:07:15.602Z,3.09
2022-11-14T16:09:42.416Z,3.06
2022-11-14T16:12:09.101Z,3.04
2022-11-14T16:14:36.517Z,3.00
2022-11-14T16:17:03.978Z,2.97
2022-11-14T16:19:30.626Z,2.94
2022-11-14T16:22:01.367Z,2.91
2022-11-14T16:24:33.695Z,2.88
2022-11-14T16:27:01.315Z,2.83
2022-11-14T16:29:28.046Z,2.76
2022-11-14T16:31:55.087Z,2.71
2022-11-14T16:34:24.356Z,2.66
2022-11-14T16:36:58.935Z,2.62
2022-11-14T16:39:25.885Z,2.59
2022-11-14T16:41:52.835Z,2.55
2022-11-14T16:44:19.494Z,2.52
2022-11-14T16:46:46.249Z,2.48
2022-11-14T16:49:17.182Z,2.47
2022-11-14T16:51:49.355Z,2.44
2022-11-14T16:54:18.769Z,2.40
2022-11-14T16:56:45.490Z,2.36
2022-11-14T16:59:12.257Z,2.31
2022-11-14T17:01:38.859Z,2.25
2022-11-14T17:04:05.926Z,2.21
2022-11-14T17:06:32.569Z,2.18
2022-11-14T17:09:00.450Z,2.15
2022-11-14T17:11:27.599Z,2.14
2022-11-14T17:13:56.396Z,2.14
2022-11-14T17:16:24.065Z,2.14
2022-11-14T17:18:52.235Z,2.12
2022-11-14T17:21:18.781Z,2.09
2022-11-14T17:23:45.266Z,2.05
2022-11-14T17:26:13.496Z,2.00
2022-11-14T17:28:39.983Z,1.96
2022-11-14T17:31:08.032Z,1.93
2022-11-14T17:33:35.267Z,1.92
2022-11-14T17:36:07.883Z,1.91
2022-11-14T17:38:35.919Z,1.89
2022-11-14T17:41:03.586Z,1.86
2022-11-14T17:43:33.125Z,1.84
2022-11-14T17:46:05.469Z,1.85
2022-11-14T17:48:33.340Z,1.86
2022-11-14T17:51:05.572Z,1.87
2022-11-14T17:53:33.599Z,1.89
2022-11-14T17:56:00.329Z,1.91
2022-11-14T17:58:31.544Z,1.93
2022-11-14T18:00:58.221Z,1.96
2022-11-14T18:03:25.955Z,1.99
2022-11-14T18:05:53.147Z,2.01
2022-11-14T18:08:19.573Z,2.00
2022-11-14T18:10:46.021Z,1.99
2022-11-14T18:13:12.561Z,1.98
2022-11-14T18:15:39.335Z,1.97
2022-11-14T18:18:06.156Z,1.96
2022-11-14T18:20:32.696Z,1.95
2022-11-14T18:22:59.238Z,1.95
2022-11-14T18:25:25.801Z,1.96
2022-11-14T18:27:52.322Z,1.97
2022-11-14T18:30:42.015Z,1.96
2022-11-14T18:33:05.472Z,1.95
2022-11-14T18:35:31.913Z,1.96
2022-11-14T18:37:58.442Z,1.99
2022-11-14T18:40:24.993Z,2.01
2022-11-14T18:42:51.432Z,2.00
2022-11-14T18:45:17.857Z,2.00
2022-11-14T18:47:44.408Z,2.00
2022-11-14T18:50:10.949Z,1.99
2022-11-14T18:52:37.391Z,2.01
2022-11-14T18:55:05.418Z,2.00
2022-11-14T18:57:31.909Z,2.01
2022-11-14T18:59:58.449Z,2.02
2022-11-14T19:02:25.022Z,2.01
2022-11-14T19:04:51.708Z,2.00
2022-11-14T19:07:18.212Z,2.00
2022-11-14T19:09:45.021Z,2.01
2022-11-14T19:12:11.457Z,2.03
2022-11-14T19:14:37.997Z,1.99
2022-11-14T19:17:04.946Z,1.96
2022-11-14T19:19:31.488Z,1.95
2022-11-14T19:21:58.233Z,1.96
2022-11-14T19:24:26.518Z,1.95
2022-11-14T19:26:52.953Z,1.96
2022-11-14T19:29:19.493Z,1.96
2022-11-14T19:31:46.031Z,1.93
2022-11-14T19:34:12.518Z,1.90
2022-11-14T19:36:58.741Z,1.87
2022-11-14T19:39:25.727Z,1.84
2022-11-14T19:41:52.167Z,1.83
2022-11-14T19:44:18.714Z,1.82
2022-11-14T19:46:47.883Z,1.83
2022-11-14T19:49:15.279Z,1.83
2022-11-14T19:51:41.813Z,1.82
2022-11-14T19:54:10.027Z,1.81
2022-11-14T19:56:36.957Z,1.79
2022-11-14T19:59:03.614Z,1.77
2022-11-14T20:01:30.113Z,1.74
2022-11-14T20:04:02.202Z,1.74
2022-11-14T20:06:34.479Z,1.76
2022-11-14T20:09:05.247Z,1.78
2022-11-14T20:11:31.861Z,1.80
2022-11-14T20:13:59.223Z,1.82
2022-11-14T20:16:31.437Z,1.82
2022-11-14T20:18:59.899Z,1.80
2022-11-14T20:21:28.777Z,1.79
2022-11-14T20:23:55.325Z,1.80
2022-11-14T20:26:23.026Z,1.80
2022-11-14T20:28:50.701Z,1.79
2022-11-14T20:31:19.750Z,1.79
2022-11-14T20:33:47.935Z,1.79
2022-11-14T20:36:19.618Z,1.77
2022-11-14T20:38:46.336Z,1.74
2022-11-14T20:41:13.526Z,1.71
2022-11-14T20:43:40.858Z,1.68
2022-11-14T20:46:12.012Z,1.69
2022-11-14T20:48:39.614Z,1.70
2022-11-14T20:51:10.732Z,1.70
2022-11-14T20:53:37.578Z,1.69
2022-11-14T20:56:04.519Z,1.67
2022-11-14T20:58:32.085Z,1.65
2022-11-14T21:00:59.064Z,1.57
2022-11-14T21:03:26.090Z,1.52
2022-11-14T21:05:53.077Z,1.50
2022-11-14T21:08:19.725Z,1.49
2022-11-14T21:10:49.979Z,1.50
2022-11-14T21:13:18.301Z,1.51
2022-11-14T21:15:44.846Z,1.49
2022-11-14T21:18:11.315Z,1.47
2022-11-14T21:20:37.826Z,1.46
2022-11-14T21:23:04.372Z,1.45
2022-11-14T21:25:30.916Z,1.43
2022-11-14T21:27:57.661Z,1.43
2022-11-14T21:30:24.103Z,1.44
2022-11-14T21:32:53.380Z,1.46
2022-11-14T21:35:19.839Z,1.47
2022-11-14T21:37:46.277Z,1.48
2022-11-14T21:40:12.973Z,1.48
2022-11-14T21:42:39.394Z,1.47
2022-11-14T21:45:07.041Z,1.43
2022-11-14T21:47:34.355Z,1.38
2022-11-14T21:50:01.438Z,1.34
2022-11-14T21:52:28.292Z,1.31
2022-11-14T21:54:54.833Z,1.29
2022-11-14T21:57:21.372Z,1.26
2022-11-14T21:59:47.798Z,1.24
2022-11-14T22:02:14.446Z,1.23
2022-11-14T22:04:40.924Z,1.21
2022-11-14T22:07:08.443Z,1.18
2022-11-14T22:09:36.973Z,1.14
2022-11-14T22:12:05.432Z,1.11
2022-11-14T22:14:31.874Z,1.09
2022-11-14T22:16:58.412Z,1.05
2022-11-14T22:19:25.271Z,1.02
2022-11-14T22:21:52.231Z,1.01
2022-11-14T22:24:18.730Z,1.03
2022-11-14T22:26:45.197Z,1.05
2022-11-14T22:29:11.755Z,1.05
2022-11-14T22:31:38.276Z,1.08
2022-11-14T22:34:05.040Z,1.09
2022-11-14T22:36:31.664Z,1.09
2022-11-14T22:38:58.207Z,1.09
2022-11-14T22:41:32.795Z,1.10
2022-11-14T22:44:01.070Z,1.11
2022-11-14T22:46:28.490Z,1.15
2022-11-14T22:48:55.832Z,1.16
2022-11-14T22:51:24.997Z,1.16
2022-11-14T22:53:54.149Z,1.14
2022-11-14T22:56:23.066Z,1.14
2022-11-14T22:58:49.780Z,1.11
2022-11-14T23:01:20.318Z,1.05
2022-11-14T23:03:47.938Z,0.99
2022-11-14T23:06:17.797Z,0.95
2022-11-14T23:08:44.947Z,0.92
2022-11-14T23:11:33.819Z,0.90
2022-11-14T23:14:01.185Z,0.90
2022-11-14T23:16:33.052Z,0.87
2022-11-14T23:19:02.494Z,0.88
2022-11-14T23:21:36.980Z,0.89
2022-11-14T23:24:07.622Z,0.89
2022-11-14T23:26:34.668Z,0.88
2022-11-14T23:29:01.350Z,0.86
2022-11-14T23:31:28.326Z,0.87
2022-11-14T23:33:56.458Z,0.89
2022-11-14T23:36:23.089Z,0.89
2022-11-14T23:38:52.396Z,0.89
2022-11-14T23:41:24.496Z,0.88
2022-11-14T23:43:51.017Z,0.91
2022-11-14T23:46:17.663Z,0.94
2022-11-14T23:48:44.259Z,0.95
2022-11-14T23:51:10.835Z,0.98
2022-11-14T23:53:37.618Z,0.99
2022-11-14T23:56:04.439Z,0.99
2022-11-14T23:58:31.221Z,0.98
